Time;durP1;ratioP1;P1;durP2;ratioP2;P2;SDS_P1;SDS_P2;PMS_P1;PMS_P2;Temp;Humidity;BMP_temperature;BMP_pressure;BME280_temperature;BME280_humidity;BME280_pressure;Samples;Min_cycle;Max_cycle;Signal;HPM_P1;HPM_P2
2023/03/13 00:01:33;;;;;;;5.20;3.30;;;;;;;11.09;33.74;99763.22;4494399;31;35006;-68
2023/03/13 00:04:01;;;;;;;4.35;2.67;;;;;;;11.16;33.53;99767.13;4497159;31;32674;-65
2023/03/13 00:06:31;;;;;;;7.43;4.28;;;;;;;10.57;34.35;99762.66;4493033;31;34974;-65
2023/03/13 00:09:01;;;;;;;5.57;3.97;;;;;;;10.84;34.19;99761.53;4495067;31;33517;-66
2023/03/13 00:11:29;;;;;;;8.75;4.45;;;;;;;10.31;35.38;99759.22;4496528;31;32968;-65
2023/03/13 00:13:59;;;;;;;6.70;3.65;;;;;;;10.53;35.63;99766.53;4497264;31;34747;-66
2023/03/13 00:16:27;;;;;;;9.10;4.68;;;;;;;10.60;36.10;99762.41;4489992;31;34534;-65
2023/03/13 00:18:56;;;;;;;14.93;4.47;;;;;;;10.37;37.72;99760.56;4495560;31;34757;-66
2023/03/13 00:21:26;;;;;;;7.37;3.40;;;;;;;10.41;37.97;99754.91;4498634;31;33878;-65
2023/03/13 00:23:54;;;;;;;7.43;4.85;;;;;;;10.48;36.75;99750.78;4494392;31;34167;-65
2023/03/13 00:26:24;;;;;;;7.07;4.50;;;;;;;10.45;36.89;99752.84;4496357;31;33936;-67
2023/03/13 00:28:52;;;;;;;8.77;4.55;;;;;;;10.67;36.59;99758.31;4499748;31;33994;-64
2023/03/13 00:31:29;;;;;;;8.98;3.92;;;;;;;10.68;36.48;99746.62;4497384;31;33854;-65
2023/03/13 00:33:59;;;;;;;11.85;4.05;;;;;;;10.99;36.34;99754.19;4476243;31;33732;-65
2023/03/13 00:36:32;;;;;;;5.28;3.10;;;;;;;11.03;35.57;99750.28;4491956;31;33384;-67
2023/03/13 00:39:02;;;;;;;3.08;2.35;;;;;;;10.76;36.60;99751.41;4498595;31;32941;-64
2023/03/13 00:41:31;;;;;;;7.68;3.55;;;;;;;10.52;36.38;99747.88;4494710;31;33773;-65
2023/03/13 00:43:59;;;;;;;5.57;3.65;;;;;;;10.30;36.81;99743.28;4496013;31;35199;-68
2023/03/13 00:46:30;;;;;;;5.55;3.22;;;;;;;10.48;36.84;99740.09;4500920;31;33463;-65
2023/03/13 00:48:57;;;;;;;18.00;3.62;;;;;;;10.76;36.27;99743.38;4493624;31;34171;-65
2023/03/13 00:51:25;;;;;;;6.28;3.42;;;;;;;10.21;37.31;99739.44;4499177;31;34791;-66
2023/03/13 00:53:55;;;;;;;6.25;3.95;;;;;;;10.44;36.96;99733.28;4495837;31;33831;-65
2023/03/13 00:56:22;;;;;;;9.57;4.60;;;;;;;10.57;36.86;99727.84;4496707;31;33371;-69
2023/03/13 00:58:50;;;;;;;6.50;4.30;;;;;;;10.62;36.83;99738.19;4494575;31;34189;-66
2023/03/13 01:01:20;;;;;;;6.90;3.70;;;;;;;10.34;37.08;99720.69;4492834;31;33773;-65
2023/03/13 01:04:03;;;;;;;4.22;2.58;;;;;;;10.40;37.29;99723.78;4498211;31;34675;-66
2023/03/13 01:06:33;;;;;;;6.60;3.33;;;;;;;10.64;36.73;99725.56;4489859;31;34294;-70
2023/03/13 01:09:01;;;;;;;9.30;5.32;;;;;;;10.84;36.50;99716.88;4499275;31;33671;-67
2023/03/13 01:11:31;;;;;;;7.05;4.12;;;;;;;11.09;35.92;99718.53;4495072;31;33457;-69
2023/03/13 01:14:04;;;;;;;7.15;4.20;;;;;;;10.93;36.15;99710.81;4497694;31;33397;-67
2023/03/13 01:16:33;;;;;;;8.23;4.12;;;;;;;10.95;36.35;99713.38;4498796;31;34637;-69
2023/03/13 01:19:05;;;;;;;9.27;4.28;;;;;;;11.02;36.46;99700.38;4496690;31;33074;-65
2023/03/13 01:21:32;;;;;;;7.10;4.70;;;;;;;11.36;35.43;99703.94;4496641;31;33792;-72
2023/03/13 01:24:00;;;;;;;6.45;3.10;;;;;;;11.28;35.53;99714.41;4495852;31;32661;-66
2023/03/13 01:26:28;;;;;;;6.37;3.72;;;;;;;11.35;35.52;99700.41;4497442;31;33783;-67
2023/03/13 01:28:56;;;;;;;6.87;4.20;;;;;;;11.41;35.77;99702.59;4496677;31;33232;-67
2023/03/13 01:31:26;;;;;;;5.47;4.05;;;;;;;11.35;35.98;99702.25;4497690;31;33711;-67
2023/03/13 01:33:56;;;;;;;7.20;3.67;;;;;;;11.18;36.09;99698.22;4495153;31;34309;-67
2023/03/13 01:36:24;;;;;;;5.45;3.25;;;;;;;11.52;35.62;99698.22;4493184;31;34915;-67
2023/03/13 01:38:54;;;;;;;8.07;4.55;;;;;;;11.46;35.50;99693.34;4497178;31;31930;-67
2023/03/13 01:41:23;;;;;;;7.15;4.53;;;;;;;11.62;35.49;99683.09;4496398;31;34113;-68
2023/03/13 01:43:51;;;;;;;11.55;5.72;;;;;;;11.63;35.49;99690.19;4498568;31;33628;-69
2023/03/13 01:46:23;;;;;;;5.68;3.90;;;;;;;11.72;35.34;99688.56;4493085;31;33733;-67
2023/03/13 01:48:59;;;;;;;5.22;3.12;;;;;;;11.57;35.46;99688.00;4503058;31;34242;-70
2023/03/13 01:51:32;;;;;;;6.90;3.85;;;;;;;11.53;35.33;99681.19;4496279;31;33865;-70
2023/03/13 01:54:07;;;;;;;7.10;4.15;;;;;;;11.64;34.96;99682.00;4484133;31;34770;-66
2023/03/13 01:56:54;;;;;;;7.77;3.57;;;;;;;10.82;36.98;99686.69;4480167;31;33757;-66
2023/03/13 01:59:29;;;;;;;5.12;2.62;;;;;;;11.27;35.55;99686.78;4502384;31;33403;-67
2023/03/13 02:01:59;;;;;;;6.07;3.20;;;;;;;11.21;35.30;99681.91;4475200;31;33583;-69
2023/03/13 02:04:31;;;;;;;5.20;3.75;;;;;;;11.37;35.27;99677.03;4480262;31;35128;-67
2023/03/13 02:07:01;;;;;;;6.12;3.53;;;;;;;11.16;35.80;99668.84;4487438;31;33538;-67
2023/03/13 02:09:30;;;;;;;3.40;2.85;;;;;;;11.24;35.82;99678.12;4482907;31;35037;-66
2023/03/13 02:12:03;;;;;;;8.50;3.00;;;;;;;11.32;35.34;99676.53;4485152;31;33902;-65
2023/03/13 02:14:34;;;;;;;6.43;3.65;;;;;;;11.23;35.55;99677.25;4487415;31;33678;-69
2023/03/13 02:17:03;;;;;;;7.30;3.78;;;;;;;10.96;35.70;99677.59;4497148;31;33553;-67
2023/03/13 02:19:41;;;;;;;5.75;3.22;;;;;;;10.78;36.37;99674.50;4485644;31;33153;-66
2023/03/13 02:22:14;;;;;;;5.45;3.37;;;;;;;11.47;35.14;99676.31;4490968;31;33652;-66
2023/03/13 02:25:15;;;;;;;5.80;3.65;;;;;;;11.65;34.87;99674.81;4498263;31;35012;-66
2023/03/13 02:27:44;;;;;;;5.95;3.28;;;;;;;11.33;35.92;99675.56;4501426;31;33896;-65
2023/03/13 02:30:13;;;;;;;4.90;3.35;;;;;;;11.14;36.18;99670.81;4496750;31;33434;-65
2023/03/13 02:32:40;;;;;;;4.07;2.83;;;;;;;11.28;35.81;99675.06;4496307;31;33503;-66
2023/03/13 02:35:11;;;;;;;6.95;4.37;;;;;;;11.33;35.89;99680.06;4490829;31;33182;-66
2023/03/13 02:37:41;;;;;;;6.65;3.12;;;;;;;11.30;36.01;99678.50;4497788;31;33502;-65
2023/03/13 02:40:12;;;;;;;8.95;4.75;;;;;;;11.35;35.83;99678.97;4497769;31;32047;-70
2023/03/13 02:42:44;;;;;;;5.45;4.18;;;;;;;11.45;35.76;99679.09;4484685;31;33841;-65
2023/03/13 02:45:16;;;;;;;5.53;3.22;;;;;;;11.18;36.25;99674.94;4493086;31;34053;-66
2023/03/13 02:47:44;;;;;;;6.87;4.40;;;;;;;11.44;35.76;99669.34;4497211;31;33543;-68
2023/03/13 02:50:12;;;;;;;4.82;3.58;;;;;;;11.55;35.60;99674.69;4497560;31;33326;-66
2023/03/13 02:52:45;;;;;;;10.27;4.20;;;;;;;11.64;35.59;99682.00;4485172;31;32629;-69
2023/03/13 02:55:22;;;;;;;7.12;3.72;;;;;;;11.60;35.67;99677.03;4498136;31;35566;-68
2023/03/13 02:57:50;;;;;;;9.20;4.57;;;;;;;11.70;35.46;99682.50;4498207;31;33896;-66
2023/03/13 03:00:18;;;;;;;6.12;3.97;;;;;;;11.57;35.76;99686.16;4495718;31;33313;-71
2023/03/13 03:02:46;;;;;;;5.53;4.25;;;;;;;11.70;35.60;99687.87;4488668;31;34270;-64
2023/03/13 03:05:13;;;;;;;8.07;3.67;;;;;;;11.45;36.36;99694.31;4485068;31;35041;-63
2023/03/13 03:07:41;;;;;;;3.83;2.45;;;;;;;11.45;36.18;99703.22;4492222;31;34476;-65
2023/03/13 03:10:09;;;;;;;6.40;3.75;;;;;;;10.18;38.76;99702.22;4498099;31;34207;-64
2023/03/13 03:12:36;;;;;;;4.53;2.65;;;;;;;11.36;36.38;99696.78;4491384;31;33706;-64
2023/03/13 03:15:05;;;;;;;6.40;3.90;;;;;;;11.52;36.38;99695.53;4502125;31;34989;-64
2023/03/13 03:17:34;;;;;;;4.72;3.47;;;;;;;11.25;36.61;99682.50;4494243;31;35128;-66
2023/03/13 03:20:03;;;;;;;14.00;3.87;;;;;;;11.14;37.03;99680.69;4490806;31;33325;-64
2023/03/13 03:22:31;;;;;;;3.30;2.15;;;;;;;10.60;38.20;99678.59;4495868;31;32293;-64
2023/03/13 03:25:00;;;;;;;4.68;3.33;;;;;;;11.01;37.24;99679.91;4493716;31;33866;-64
2023/03/13 03:27:27;;;;;;;6.95;3.45;;;;;;;10.56;38.08;99686.00;4493490;31;33440;-64
2023/03/13 03:29:55;;;;;;;7.93;3.58;;;;;;;10.94;37.44;99695.59;4490916;31;34379;-65
2023/03/13 03:32:23;;;;;;;6.35;3.87;;;;;;;10.81;37.89;99694.84;4493838;31;34675;-64
2023/03/13 03:34:50;;;;;;;6.03;3.50;;;;;;;10.66;38.10;99692.38;4497696;31;33764;-66
2023/03/13 03:37:18;;;;;;;9.68;4.60;;;;;;;10.63;38.13;99689.94;4486524;31;34099;-67
2023/03/13 03:39:45;;;;;;;8.95;4.43;;;;;;;10.41;38.65;99681.81;4491511;31;32428;-66
2023/03/13 03:42:13;;;;;;;7.22;3.80;;;;;;;9.74;39.88;99688.44;4495575;31;37152;-66
2023/03/13 03:44:41;;;;;;;5.80;3.15;;;;;;;10.09;39.16;99682.34;4492434;31;33925;-67
2023/03/13 03:47:09;;;;;;;7.87;3.80;;;;;;;10.61;38.40;99683.81;4486882;31;33398;-65
2023/03/13 03:49:37;;;;;;;8.10;4.03;;;;;;;10.88;37.81;99686.22;4494602;31;32923;-66
2023/03/13 03:52:05;;;;;;;9.38;5.65;;;;;;;10.69;38.29;99693.97;4493920;31;33638;-66
2023/03/13 03:54:34;;;;;;;7.55;4.20;;;;;;;10.86;37.91;99693.50;4490882;31;33858;-69
2023/03/13 03:57:01;;;;;;;7.30;4.35;;;;;;;10.87;37.75;99694.38;4487925;31;32297;-69
2023/03/13 03:59:29;;;;;;;3.95;2.67;;;;;;;10.99;37.53;99698.78;4488233;31;33074;-68
2023/03/13 04:01:57;;;;;;;5.28;4.15;;;;;;;10.59;38.27;99701.81;4489100;31;34245;-65
2023/03/13 04:04:26;;;;;;;5.90;3.50;;;;;;;9.88;39.92;99700.78;4494805;31;33050;-65
2023/03/13 04:06:55;;;;;;;5.90;3.85;;;;;;;10.17;39.56;99711.19;4509424;31;33747;-65
2023/03/13 04:09:22;;;;;;;5.50;3.72;;;;;;;10.41;39.02;99706.72;4505834;31;32038;-64
2023/03/13 04:11:50;;;;;;;3.45;2.35;;;;;;;10.55;38.68;99710.19;4499120;31;33480;-65
2023/03/13 04:14:17;;;;;;;6.50;3.25;;;;;;;10.54;38.91;99716.53;4492896;31;33641;-65
2023/03/13 04:16:45;;;;;;;3.12;2.83;;;;;;;10.29;40.30;99709.47;4508133;31;33816;-65
2023/03/13 04:19:13;;;;;;;7.43;5.20;;;;;;;10.11;40.17;99716.97;4504346;31;33052;-64
2023/03/13 04:21:41;;;;;;;9.02;4.18;;;;;;;10.45;39.37;99713.56;4498230;31;33789;-65
2023/03/13 04:24:09;;;;;;;6.50;3.72;;;;;;;10.74;38.62;99713.19;4492271;31;34266;-67
2023/03/13 04:26:38;;;;;;;6.10;3.22;;;;;;;10.53;39.60;99717.47;4505616;31;35001;-65
2023/03/13 04:29:05;;;;;;;6.47;4.25;;;;;;;10.70;38.64;99722.44;4492966;31;33412;-64
2023/03/13 04:31:35;;;;;;;5.15;3.67;;;;;;;10.94;38.18;99725.91;4505708;31;32936;-65
2023/03/13 04:34:03;;;;;;;3.75;2.95;;;;;;;10.44;39.26;99738.62;4497915;31;32862;-64
2023/03/13 04:36:31;;;;;;;7.93;3.60;;;;;;;10.99;37.86;99738.09;4497997;31;34790;-67
2023/03/13 04:38:59;;;;;;;4.85;3.45;;;;;;;10.41;39.48;99729.97;4497870;31;34230;-67
2023/03/13 04:41:27;;;;;;;7.12;3.87;;;;;;;10.81;38.35;99735.00;4494549;31;33838;-66
2023/03/13 04:43:55;;;;;;;5.97;3.20;;;;;;;11.10;37.88;99722.03;4490531;31;33978;-64
2023/03/13 04:46:23;;;;;;;11.02;3.60;;;;;;;11.19;37.61;99722.19;4497939;31;33499;-64
2023/03/13 04:48:51;;;;;;;5.07;3.45;;;;;;;10.69;38.45;99718.06;4494466;31;32797;-63
2023/03/13 04:51:19;;;;;;;6.65;3.92;;;;;;;10.68;38.46;99706.47;4496618;31;33933;-66
2023/03/13 04:53:47;;;;;;;7.40;3.42;;;;;;;10.48;38.84;99724.03;4495731;31;33998;-67
2023/03/13 04:56:24;;;;;;;4.25;2.92;;;;;;;10.64;38.47;99736.28;4500754;31;34888;-65
2023/03/13 04:59:13;;;;;;;5.25;2.75;;;;;;;10.87;37.85;99735.38;4492360;31;33945;-67
2023/03/13 05:01:41;;;;;;;5.75;3.60;;;;;;;10.88;38.03;99737.09;4489266;31;34627;-65
2023/03/13 05:04:09;;;;;;;6.97;4.12;;;;;;;10.77;38.23;99747.75;4492699;31;33748;-66
2023/03/13 05:06:37;;;;;;;7.87;3.22;;;;;;;10.90;37.79;99751.22;4499493;31;34544;-65
2023/03/13 05:09:05;;;;;;;4.70;3.12;;;;;;;10.83;38.71;99744.63;4496463;31;32475;-65
2023/03/13 05:11:35;;;;;;;5.40;3.75;;;;;;;10.86;37.98;99748.91;4500649;31;34246;-65
2023/03/13 05:14:03;;;;;;;10.90;3.67;;;;;;;10.80;38.03;99741.31;4502234;31;34440;-67
2023/03/13 05:16:32;;;;;;;7.75;4.32;;;;;;;10.86;37.88;99736.34;4497322;31;34227;-67
2023/03/13 05:19:00;;;;;;;4.93;3.67;;;;;;;11.09;37.29;99744.47;4492695;31;33516;-67
2023/03/13 05:21:28;;;;;;;8.20;3.42;;;;;;;11.25;36.98;99742.28;4498159;31;35015;-65
2023/03/13 05:23:56;;;;;;;6.68;3.33;;;;;;;11.04;37.41;99751.97;4494182;31;33947;-66
2023/03/13 05:26:24;;;;;;;5.80;3.75;;;;;;;11.03;37.24;99748.44;4497598;31;33445;-65
2023/03/13 05:28:51;;;;;;;6.90;3.65;;;;;;;11.00;37.45;99748.69;4494732;31;32494;-65
2023/03/13 05:31:19;;;;;;;7.43;4.07;;;;;;;11.45;36.18;99766.69;4496608;31;33728;-67
2023/03/13 05:33:47;;;;;;;7.03;4.18;;;;;;;11.41;36.20;99758.88;4496715;31;33938;-69
2023/03/13 05:36:15;;;;;;;7.30;4.25;;;;;;;10.84;37.03;99761.53;4497503;31;33435;-65
2023/03/13 05:38:43;;;;;;;12.70;3.70;;;;;;;8.84;41.05;99770.38;4495012;31;34251;-67
2023/03/13 05:41:11;;;;;;;4.60;3.37;;;;;;;10.22;38.54;99763.38;4495881;31;33958;-65
2023/03/13 05:43:38;;;;;;;7.62;4.32;;;;;;;10.62;37.44;99765.81;4496691;31;32311;-67
2023/03/13 05:46:06;;;;;;;6.37;3.90;;;;;;;10.41;37.92;99768.28;4496169;31;33863;-65
2023/03/13 05:48:33;;;;;;;4.57;3.65;;;;;;;10.07;38.43;99769.00;4497168;31;33458;-67
2023/03/13 05:51:01;;;;;;;6.05;4.05;;;;;;;10.09;38.14;99769.75;4496333;31;33575;-65
2023/03/13 05:53:29;;;;;;;6.05;3.53;;;;;;;9.35;39.86;99771.44;4500240;31;33643;-65
2023/03/13 05:55:57;;;;;;;6.00;3.75;;;;;;;9.95;38.91;99763.59;4498040;31;35180;-66
2023/03/13 05:58:26;;;;;;;7.40;4.72;;;;;;;10.20;38.40;99767.97;4494960;31;33580;-65
2023/03/13 06:00:56;;;;;;;9.45;3.90;;;;;;;10.55;37.82;99772.59;4486189;31;34143;-65
2023/03/13 06:03:25;;;;;;;4.15;2.90;;;;;;;10.76;37.12;99767.47;4503125;31;33629;-67
2023/03/13 06:05:58;;;;;;;9.15;3.42;;;;;;;10.03;38.33;99769.22;4497634;31;33769;-67
2023/03/13 06:08:28;;;;;;;6.12;4.20;;;;;;;10.13;38.87;99764.06;4493288;31;33635;-65
2023/03/13 06:10:58;;;;;;;6.07;2.47;;;;;;;8.96;40.15;99774.06;4500125;31;32288;-67
2023/03/13 06:13:26;;;;;;;9.07;2.75;;;;;;;9.39;39.61;99767.56;4504922;31;33795;-65
2023/03/13 06:15:56;;;;;;;4.85;3.03;;;;;;;8.23;41.70;99766.41;4495031;31;33945;-67
2023/03/13 06:18:24;;;;;;;2.92;2.60;;;;;;;8.52;41.55;99758.34;4499178;31;34420;-65
2023/03/13 06:21:00;;;;;;;2.97;2.03;;;;;;;8.83;40.57;99762.50;4493856;31;33604;-65
2023/03/13 06:23:28;;;;;;;4.37;2.35;;;;;;;9.05;40.37;99754.75;4506812;31;33717;-65
2023/03/13 06:25:55;;;;;;;4.78;2.67;;;;;;;9.33;39.88;99764.34;4496406;31;31776;-70
2023/03/13 06:28:23;;;;;;;6.68;2.55;;;;;;;9.87;38.46;99762.41;4494360;31;33186;-66
2023/03/13 06:30:50;;;;;;;4.43;2.65;;;;;;;10.02;38.08;99751.47;4490127;31;32480;-66
2023/03/13 06:33:18;;;;;;;8.10;4.03;;;;;;;10.31;37.58;99756.56;4495778;31;33974;-67
2023/03/13 06:35:45;;;;;;;4.85;3.03;;;;;;;9.10;39.32;99751.75;4487148;31;34898;-66
2023/03/13 06:38:24;;;;;;;4.85;3.45;;;;;;;9.78;38.28;99755.91;4494349;31;33219;-67
2023/03/13 06:40:51;;;;;;;4.87;2.67;;;;;;;10.27;37.16;99752.38;4494058;31;33481;-66
2023/03/13 06:43:19;;;;;;;10.57;3.65;;;;;;;8.62;40.51;99770.09;4494829;31;33682;-66
2023/03/13 06:45:47;;;;;;;9.32;3.08;;;;;;;9.23;39.27;99770.44;4493966;31;34980;-66
2023/03/13 06:48:14;;;;;;;7.90;3.30;;;;;;;8.49;40.52;99770.06;4493859;31;32207;-66
2023/03/13 06:50:42;;;;;;;5.55;2.67;;;;;;;8.96;39.64;99771.38;4497328;31;33266;-68
2023/03/13 06:53:15;;;;;;;5.28;2.00;;;;;;;8.78;39.55;99768.12;4499593;31;35176;-66
2023/03/13 06:55:43;;;;;;;5.18;3.65;;;;;;;8.60;40.39;99767.56;4498489;31;34130;-65
2023/03/13 06:58:11;;;;;;;3.28;2.47;;;;;;;7.77;41.35;99766.69;4498719;31;33594;-65
2023/03/13 07:00:58;;;;;;;4.80;2.60;;;;;;;9.02;39.77;99767.41;4497259;31;33744;-67
2023/03/13 07:03:26;;;;;;;5.07;3.37;;;;;;;9.62;38.19;99758.78;4499951;31;33755;-66
2023/03/13 07:05:57;;;;;;;6.97;3.37;;;;;;;9.75;37.66;99758.78;4493734;31;34790;-69
2023/03/13 07:08:25;;;;;;;5.35;3.15;;;;;;;10.24;37.50;99752.56;4501092;31;33545;-66
2023/03/13 07:10:56;;;;;;;4.62;3.10;;;;;;;10.48;37.16;99760.66;4504814;31;35102;-70
2023/03/13 07:13:24;;;;;;;6.62;3.28;;;;;;;10.89;36.68;99756.69;4496081;31;34002;-66
2023/03/13 07:15:52;;;;;;;7.10;3.10;;;;;;;11.56;35.18;99750.63;4500826;31;33863;-66
2023/03/13 07:18:21;;;;;;;12.00;3.72;;;;;;;11.12;35.49;99746.91;4498145;31;32001;-65
2023/03/13 07:20:53;;;;;;;9.02;4.20;;;;;;;11.03;35.57;99756.47;4504837;31;33669;-66
2023/03/13 07:23:22;;;;;;;6.80;2.97;;;;;;;10.00;36.78;99750.72;4501047;31;34164;-66
2023/03/13 07:25:58;;;;;;;5.45;2.90;;;;;;;8.78;39.02;99752.13;4505814;31;33845;-70
2023/03/13 07:28:27;;;;;;;5.03;2.47;;;;;;;9.23;38.85;99752.59;4492708;31;33665;-69
2023/03/13 07:30:54;;;;;;;8.68;3.08;;;;;;;10.18;37.41;99745.88;4504616;31;33661;-66
2023/03/13 07:33:21;;;;;;;6.80;4.03;;;;;;;10.38;36.80;99749.78;4495076;31;35775;-63
2023/03/13 07:35:50;;;;;;;4.85;3.08;;;;;;;9.98;37.18;99755.34;4489107;31;34505;-67
2023/03/13 07:38:18;;;;;;;4.75;3.05;;;;;;;10.26;36.86;99746.16;4494128;31;34016;-65
2023/03/13 07:40:53;;;;;;;7.03;3.62;;;;;;;10.17;36.90;99744.13;4497301;31;32811;-65
2023/03/13 07:43:21;;;;;;;;;;;;;;;10.28;36.40;99746.06;4495907;31;35220;-65
2023/03/13 07:46:09;;;;;;;5.62;3.53;;;;;;;10.69;36.08;99739.47;4503083;31;34640;-64
2023/03/13 07:48:39;;;;;;;4.65;2.42;;;;;;;11.48;34.46;99736.97;4495621;31;34212;-64
2023/03/13 07:51:11;;;;;;;4.70;2.83;;;;;;;11.29;34.83;99738.41;4505631;31;33622;-64
2023/03/13 07:53:39;;;;;;;5.22;3.17;;;;;;;11.05;35.42;99729.59;4497254;31;35756;-64
2023/03/13 07:56:11;;;;;;;5.85;3.42;;;;;;;10.14;36.28;99727.47;4508914;31;33643;-64
2023/03/13 07:58:40;;;;;;;6.37;3.62;;;;;;;10.85;35.74;99723.06;4496653;31;34210;-66
2023/03/13 08:01:13;;;;;;;5.25;2.95;;;;;;;11.31;34.36;99725.75;4491288;31;33547;-64
2023/03/13 08:03:40;;;;;;;6.12;3.05;;;;;;;11.40;33.94;99719.66;4484035;31;32706;-66
2023/03/13 08:06:10;;;;;;;7.45;3.30;;;;;;;10.13;36.04;99721.25;4493341;31;32637;-64
2023/03/13 08:08:38;;;;;;;7.25;3.87;;;;;;;11.13;35.58;99717.31;4497761;31;33575;-64
2023/03/13 08:11:10;;;;;;;5.78;3.37;;;;;;;11.71;33.91;99700.28;4506557;31;34888;-64
2023/03/13 08:13:38;;;;;;;4.60;2.65;;;;;;;12.05;33.50;99707.34;4505958;31;32863;-65
2023/03/13 08:16:17;;;;;;;6.78;2.67;;;;;;;11.80;33.35;99697.72;4494905;31;34642;-65
2023/03/13 08:18:46;;;;;;;6.68;3.60;;;;;;;11.27;33.72;99702.84;4496147;31;34560;-68
2023/03/13 08:21:17;;;;;;;4.12;2.53;;;;;;;11.50;34.08;99687.63;4495722;31;32148;-65
2023/03/13 08:23:45;;;;;;;5.47;2.78;;;;;;;12.79;31.42;99683.28;4499427;31;33998;-65
2023/03/13 08:26:17;;;;;;;4.07;2.72;;;;;;;11.77;33.28;99681.03;4498958;31;35541;-67
2023/03/13 08:28:46;;;;;;;3.42;2.05;;;;;;;10.80;34.45;99667.22;4500617;31;34391;-65
2023/03/13 08:31:21;;;;;;;6.12;2.62;;;;;;;12.13;32.79;99677.19;4494018;31;33608;-66
2023/03/13 08:33:49;;;;;;;4.72;2.67;;;;;;;12.43;32.67;99670.28;4497332;31;32745;-65
2023/03/13 08:36:17;;;;;;;11.00;3.20;;;;;;;12.09;32.56;99671.25;4494506;31;33834;-65
2023/03/13 08:38:46;;;;;;;5.57;3.00;;;;;;;11.38;33.55;99672.53;4498027;31;34709;-67
2023/03/13 08:41:20;;;;;;;6.30;3.35;;;;;;;11.06;34.88;99675.06;4497356;31;33897;-67
2023/03/13 08:43:47;;;;;;;5.60;3.28;;;;;;;10.81;35.24;99676.09;4498643;31;33727;-65
2023/03/13 08:46:15;;;;;;;5.75;3.62;;;;;;;11.21;34.43;99657.78;4499385;31;33786;-69
2023/03/13 08:48:50;;;;;;;5.97;2.53;;;;;;;11.50;34.62;99659.97;4498978;31;32689;-66
2023/03/13 08:51:19;;;;;;;3.40;2.35;;;;;;;11.89;32.97;99670.19;4497824;31;33824;-68
2023/03/13 08:53:47;;;;;;;5.30;3.50;;;;;;;12.69;32.23;99662.72;4485157;31;34064;-65
2023/03/13 08:56:17;;;;;;;5.45;3.65;;;;;;;13.02;31.63;99659.81;4495948;31;34137;-66
2023/03/13 08:58:52;;;;;;;7.53;3.80;;;;;;;12.06;32.78;99665.28;4492797;31;33626;-64
2023/03/13 09:01:20;;;;;;;4.62;3.28;;;;;;;11.63;33.10;99666.91;4501102;31;34744;-64
2023/03/13 09:03:48;;;;;;;6.15;3.25;;;;;;;11.23;33.28;99657.66;4504132;31;32672;-64
2023/03/13 09:06:16;;;;;;;6.15;2.83;;;;;;;11.49;33.29;99666.31;4499029;31;35681;-66
2023/03/13 09:08:44;;;;;;;3.47;2.40;;;;;;;11.99;32.84;99656.03;4497160;31;33377;-64
2023/03/13 09:11:14;;;;;;;6.12;2.78;;;;;;;13.09;31.26;99637.78;4495914;31;33827;-65
2023/03/13 09:13:44;;;;;;;5.80;3.85;;;;;;;12.47;32.13;99648.41;4497134;31;33319;-67
2023/03/13 09:16:14;;;;;;;6.05;3.53;;;;;;;12.63;31.81;99639.06;4498793;31;35598;-65
2023/03/13 09:18:42;;;;;;;5.65;3.37;;;;;;;13.09;31.26;99641.34;4495775;31;34533;-66
2023/03/13 09:21:16;;;;;;;3.53;2.55;;;;;;;13.62;30.28;99626.87;4496120;31;34966;-65
2023/03/13 09:23:44;;;;;;;7.62;2.85;;;;;;;13.52;30.59;99632.25;4498342;31;34857;-65
2023/03/13 09:26:12;;;;;;;5.45;3.33;;;;;;;12.95;30.92;99633.63;4501395;31;33944;-65
2023/03/13 09:28:40;;;;;;;6.37;3.87;;;;;;;13.82;30.08;99628.63;4493957;31;33624;-66
2023/03/13 09:31:11;;;;;;;7.55;3.47;;;;;;;12.77;31.21;99630.69;4496713;31;32504;-65
2023/03/13 09:33:39;;;;;;;7.18;4.37;;;;;;;13.13;31.07;99628.47;4493307;31;33187;-65
2023/03/13 09:36:07;;;;;;;7.70;4.15;;;;;;;13.43;30.50;99622.28;4496580;31;33910;-64
2023/03/13 09:38:36;;;;;;;6.45;3.92;;;;;;;13.67;31.01;99627.31;4490419;31;33386;-65
2023/03/13 09:41:15;;;;;;;6.55;3.85;;;;;;;13.79;30.32;99615.44;4498667;31;33897;-64
2023/03/13 09:43:57;;;;;;;7.05;4.53;;;;;;;13.39;30.72;99620.87;4500821;31;35268;-63
2023/03/13 09:46:44;;;;;;;7.07;3.70;;;;;;;13.22;31.21;99614.25;4478808;31;33975;-65
2023/03/13 09:49:17;;;;;;;7.70;3.03;;;;;;;13.33;30.73;99619.56;4507153;31;33279;-63
2023/03/13 09:51:49;;;;;;;5.00;2.92;;;;;;;12.87;31.52;99617.31;4484589;31;34213;-65
2023/03/13 09:54:23;;;;;;;5.53;3.65;;;;;;;13.83;30.63;99618.72;4502865;31;34317;-67
2023/03/13 09:57:33;;;;;;;3.97;2.30;;;;;;;13.64;30.17;99606.94;4487799;31;33846;-64
2023/03/13 10:00:12;;;;;;;6.40;3.28;;;;;;;13.28;30.33;99619.97;4493959;31;32073;-65
2023/03/13 10:02:45;;;;;;;7.45;4.95;;;;;;;13.28;30.42;99595.75;4481874;31;33996;-64
2023/03/13 10:05:20;;;;;;;4.50;2.90;;;;;;;13.47;30.05;99588.75;4475509;31;34263;-65
2023/03/13 10:07:48;;;;;;;4.15;2.28;;;;;;;14.26;29.60;99593.28;4491318;31;33887;-63
2023/03/13 10:10:18;;;;;;;7.90;3.33;;;;;;;14.65;29.75;99573.41;4493894;31;31613;-64
2023/03/13 10:12:48;;;;;;;7.47;3.53;;;;;;;15.47;28.26;99574.53;4482448;31;34002;-64
2023/03/13 10:15:27;;;;;;;7.90;4.07;;;;;;;14.87;28.22;99577.62;4481881;31;32867;-63
2023/03/13 10:17:54;;;;;;;6.22;3.92;;;;;;;14.52;28.92;99577.41;4491105;31;33754;-63
2023/03/13 10:20:32;;;;;;;6.75;3.50;;;;;;;14.13;29.22;99585.50;4479974;31;33273;-65
2023/03/13 10:23:06;;;;;;;5.03;3.03;;;;;;;14.99;28.56;99570.22;4504725;31;33814;-66
2023/03/13 10:25:37;;;;;;;10.13;3.75;;;;;;;15.21;27.70;99589.69;4485234;31;34000;-63
2023/03/13 10:28:13;;;;;;;5.53;3.95;;;;;;;15.22;27.94;99577.94;4496670;31;34983;-64
2023/03/13 10:30:46;;;;;;;6.47;4.20;;;;;;;15.20;28.16;99572.69;4496664;31;33448;-64
2023/03/13 10:33:23;;;;;;;6.50;4.80;;;;;;;14.79;28.36;99569.41;4491920;31;34954;-64
2023/03/13 10:36:05;;;;;;;9.23;3.58;;;;;;;15.22;28.52;99561.75;4496299;31;32982;-67
2023/03/13 10:38:44;;;;;;;5.57;3.28;;;;;;;14.88;28.52;99560.44;4478837;31;33882;-65
2023/03/13 10:41:30;;;;;;;12.90;5.47;;;;;;;14.52;29.17;99567.50;4491148;31;34496;-65
2023/03/13 10:44:19;;;;;;;8.25;4.82;;;;;;;14.84;28.88;99550.97;4493244;31;34811;-65
2023/03/13 10:46:48;;;;;;;4.75;3.08;;;;;;;15.10;28.53;99561.09;4496588;31;33876;-68
2023/03/13 10:49:21;;;;;;;5.70;3.42;;;;;;;15.46;28.39;99548.56;4482030;32;33988;-64
2023/03/13 10:51:54;;;;;;;9.35;4.57;;;;;;;15.49;28.27;99545.56;4496446;31;33602;-65
2023/03/13 10:54:24;;;;;;;8.63;4.40;;;;;;;16.01;27.78;99547.66;4497284;31;33990;-63
2023/03/13 10:57:26;;;;;;;6.68;3.15;;;;;;;15.49;28.24;99542.03;4496394;31;34021;-63
2023/03/13 10:59:54;;;;;;;6.87;4.60;;;;;;;15.21;28.55;99539.31;4480231;31;33880;-64
2023/03/13 11:02:37;;;;;;;7.47;4.68;;;;;;;15.27;28.85;99540.56;4483192;31;33025;-64
2023/03/13 11:05:25;;;;;;;8.80;5.25;;;;;;;15.64;28.87;99523.47;4498375;31;33909;-67
2023/03/13 11:07:53;;;;;;;9.20;5.37;;;;;;;16.06;28.06;99521.06;4495174;31;34905;-63
2023/03/13 11:10:28;;;;;;;8.98;5.18;;;;;;;16.15;28.47;99512.03;4492662;31;34861;-63
2023/03/13 11:12:57;;;;;;;7.25;4.05;;;;;;;15.60;28.61;99517.50;4494651;31;33497;-65
2023/03/13 11:15:38;;;;;;;6.03;3.85;;;;;;;15.54;28.84;99519.00;4483473;31;33651;-62
2023/03/13 11:18:24;;;;;;;10.10;5.30;;;;;;;15.95;28.59;99508.63;4485437;31;34672;-63
2023/03/13 11:20:52;;;;;;;7.72;4.82;;;;;;;15.88;28.46;99502.16;4478093;31;34465;-64
2023/03/13 11:23:38;;;;;;;8.25;4.05;;;;;;;16.00;28.80;99509.00;4481423;31;32979;-63
2023/03/13 11:26:20;;;;;;;7.50;4.07;;;;;;;15.66;28.98;99516.06;4476051;31;34168;-65
2023/03/13 11:28:53;;;;;;;7.95;5.37;;;;;;;15.99;28.82;99493.84;4479644;31;33731;-65
2023/03/13 11:31:26;;;;;;;8.45;4.97;;;;;;;15.98;29.12;99481.31;4497999;31;34939;-64
2023/03/13 11:34:19;;;;;;;11.50;5.90;;;;;;;15.67;28.72;99482.75;4487873;31;33261;-64
2023/03/13 11:36:58;;;;;;;11.27;6.35;;;;;;;15.61;29.37;99490.41;4495340;31;34762;-63
2023/03/13 11:39:53;;;;;;;7.68;5.40;;;;;;;15.35;30.52;99486.75;4498393;31;35393;-66
2023/03/13 11:42:46;;;;;;;11.18;6.60;;;;;;;16.03;29.51;99489.81;4494785;31;33738;-64
2023/03/13 11:45:32;;;;;;;10.07;6.18;;;;;;;15.88;30.05;99491.34;4484910;31;34625;-66
2023/03/13 11:47:59;;;;;;;;;;;;;;;15.70;30.23;99479.75;4496170;31;34477;-66
2023/03/13 11:50:32;;;;;;;10.48;6.20;;;;;;;15.29;30.92;99468.47;4497184;31;34537;-66
2023/03/13 11:53:19;;;;;;;9.77;5.85;;;;;;;15.54;30.69;99475.84;4492808;31;33552;-68